createdAt,value
2018-10-17T00:00:10.986Z,16.36
2018-10-17T00:02:38.918Z,16.29
2018-10-17T00:05:07.248Z,16.23
2018-10-17T00:07:35.128Z,16.18
2018-10-17T00:10:03.082Z,16.12
2018-10-17T00:12:31.047Z,16.06
2018-10-17T00:14:59.035Z,16.00
2018-10-17T00:17:26.958Z,15.90
2018-10-17T00:19:54.883Z,15.85
2018-10-17T00:22:22.803Z,15.81
2018-10-17T00:24:50.755Z,15.78
2018-10-17T00:27:18.683Z,15.75
2018-10-17T00:29:46.599Z,15.70
2018-10-17T00:32:14.574Z,15.66
2018-10-17T00:34:42.491Z,15.61
2018-10-17T00:37:10.474Z,15.59
2018-10-17T00:39:38.352Z,15.54
2018-10-17T00:42:06.300Z,15.52
2018-10-17T00:44:34.472Z,15.48
2018-10-17T00:47:02.418Z,15.47
2018-10-17T00:49:30.409Z,15.46
2018-10-17T00:51:58.316Z,15.46
2018-10-17T00:54:26.227Z,15.47
2018-10-17T00:56:54.182Z,15.46
2018-10-17T00:59:22.085Z,15.46
2018-10-17T01:01:50.003Z,15.45
2018-10-17T01:04:17.943Z,15.45
2018-10-17T01:06:45.977Z,15.42
2018-10-17T01:09:14.699Z,15.37
2018-10-17T01:11:42.791Z,15.38
2018-10-17T01:14:10.954Z,15.42
2018-10-17T01:16:38.942Z,15.41
2018-10-17T01:19:07.037Z,15.47
2018-10-17T01:21:35.480Z,15.48
2018-10-17T01:24:03.410Z,15.47
2018-10-17T01:26:31.311Z,15.52
2018-10-17T01:28:59.247Z,15.57
2018-10-17T01:31:27.167Z,15.56
2018-10-17T01:33:55.074Z,15.58
2018-10-17T01:36:22.994Z,15.59
2018-10-17T01:38:50.925Z,15.66
2018-10-17T01:41:18.952Z,15.64
2018-10-17T01:43:46.751Z,15.64
2018-10-17T01:46:14.650Z,15.60
2018-10-17T01:48:42.582Z,15.61
2018-10-17T01:51:10.495Z,15.47
2018-10-17T01:53:38.413Z,15.33
2018-10-17T01:56:06.339Z,15.24
2018-10-17T01:58:34.259Z,15.18
2018-10-17T02:01:02.204Z,15.13
2018-10-17T02:03:30.096Z,15.13
2018-10-17T02:05:58.032Z,15.15
2018-10-17T02:08:25.943Z,15.16
2018-10-17T02:10:53.963Z,15.23
2018-10-17T02:13:22.475Z,15.17
2018-10-17T02:15:51.901Z,15.15
2018-10-17T02:18:19.963Z,15.15
2018-10-17T02:20:48.028Z,15.13
2018-10-17T02:23:16.043Z,15.09
2018-10-17T02:25:43.981Z,15.15
2018-10-17T02:28:11.915Z,15.17
2018-10-17T02:30:39.819Z,15.15
2018-10-17T02:33:07.743Z,15.13
2018-10-17T02:35:35.671Z,15.12
2018-10-17T02:38:03.581Z,15.11
2018-10-17T02:40:31.508Z,15.07
2018-10-17T02:42:59.417Z,15.09
2018-10-17T02:45:27.338Z,15.09
2018-10-17T02:47:55.231Z,15.08
2018-10-17T02:50:23.141Z,15.06
2018-10-17T02:52:51.061Z,15.03
2018-10-17T02:55:18.982Z,15.00
2018-10-17T02:57:46.887Z,14.97
2018-10-17T03:00:14.792Z,14.96
2018-10-17T03:02:42.681Z,14.95
2018-10-17T03:05:10.679Z,14.89
2018-10-17T03:07:38.540Z,14.83
2018-10-17T03:10:06.500Z,14.80
2018-10-17T03:12:34.450Z,14.78
2018-10-17T03:15:02.364Z,14.73
2018-10-17T03:17:30.288Z,14.69
2018-10-17T03:19:58.215Z,14.63
2018-10-17T03:22:26.131Z,14.55
2018-10-17T03:24:54.086Z,14.54
2018-10-17T03:27:21.942Z,14.51
2018-10-17T03:29:49.867Z,14.52
2018-10-17T03:32:18.147Z,14.53
2018-10-17T03:34:46.096Z,14.59
2018-10-17T03:37:14.162Z,14.63
2018-10-17T03:39:41.960Z,14.61
2018-10-17T03:42:09.875Z,14.59
2018-10-17T03:44:37.832Z,14.63
2018-10-17T03:47:05.788Z,14.66
2018-10-17T03:49:33.775Z,14.66
2018-10-17T03:52:01.648Z,14.70
2018-10-17T03:54:29.564Z,14.73
2018-10-17T03:56:57.497Z,14.77
2018-10-17T03:59:25.533Z,14.87
2018-10-17T04:01:53.357Z,14.84
2018-10-17T04:04:21.320Z,14.89
2018-10-17T04:06:49.231Z,14.86
2018-10-17T04:09:17.182Z,14.86
2018-10-17T04:11:45.180Z,14.81
2018-10-17T04:14:13.128Z,14.83
2018-10-17T04:16:41.088Z,14.93
2018-10-17T04:19:09.056Z,14.87
2018-10-17T04:21:36.936Z,14.83
2018-10-17T04:24:05.071Z,14.87
2018-10-17T04:26:33.005Z,14.86
2018-10-17T04:29:00.977Z,14.83
2018-10-17T04:31:28.912Z,14.80
2018-10-17T04:33:56.825Z,14.77
2018-10-17T04:36:24.761Z,14.75
2018-10-17T04:38:52.663Z,14.73
2018-10-17T04:41:20.589Z,14.68
2018-10-17T04:43:48.580Z,14.65
2018-10-17T04:46:16.503Z,14.58
2018-10-17T04:48:44.408Z,14.55
2018-10-17T04:51:12.340Z,14.51
2018-10-17T04:53:40.308Z,14.49
2018-10-17T04:56:08.244Z,14.46
2018-10-17T04:58:36.176Z,14.43
2018-10-17T05:01:04.125Z,14.38
2018-10-17T05:03:32.004Z,14.36
2018-10-17T05:05:59.924Z,14.33
2018-10-17T05:08:27.877Z,14.35
2018-10-17T05:10:55.883Z,14.34
2018-10-17T05:13:23.744Z,14.30
2018-10-17T05:15:51.696Z,14.26
2018-10-17T05:18:19.658Z,14.26
2018-10-17T05:20:47.607Z,14.25
2018-10-17T05:23:15.584Z,14.27
2018-10-17T05:25:43.477Z,14.23
2018-10-17T05:28:11.452Z,14.21
2018-10-17T05:30:39.362Z,14.22
2018-10-17T05:33:07.516Z,14.23
2018-10-17T05:35:35.448Z,14.26
2018-10-17T05:38:03.710Z,14.27
2018-10-17T05:40:31.564Z,14.01
2018-10-17T05:42:59.529Z,14.14
2018-10-17T05:45:27.396Z,14.24
2018-10-17T05:47:55.275Z,14.32
2018-10-17T05:50:23.908Z,14.36
2018-10-17T05:52:51.855Z,14.33
2018-10-17T05:55:19.789Z,14.32
2018-10-17T05:57:47.688Z,14.29
2018-10-17T06:00:15.648Z,14.34
2018-10-17T06:02:43.624Z,14.34
2018-10-17T06:05:11.600Z,14.31
2018-10-17T06:07:39.495Z,14.18
2018-10-17T06:10:08.502Z,14.11
2018-10-17T06:12:36.398Z,14.15
2018-10-17T06:15:04.705Z,14.14
2018-10-17T06:17:32.632Z,14.19
2018-10-17T06:20:00.595Z,14.22
2018-10-17T06:22:28.492Z,14.20
2018-10-17T06:24:56.445Z,14.20
2018-10-17T06:27:24.332Z,14.31
2018-10-17T06:29:52.249Z,14.32
2018-10-17T06:32:20.188Z,14.40
2018-10-17T06:34:48.141Z,14.43
2018-10-17T06:37:16.150Z,14.45
2018-10-17T06:39:44.003Z,14.47
2018-10-17T06:42:11.942Z,14.58
2018-10-17T06:44:39.860Z,14.71
2018-10-17T06:47:08.455Z,14.72
2018-10-17T06:49:36.322Z,14.75
2018-10-17T06:52:04.298Z,14.87
2018-10-17T06:54:32.350Z,14.94
2018-10-17T06:57:00.214Z,15.12
2018-10-17T06:59:28.384Z,15.22
2018-10-17T07:01:56.414Z,15.41
2018-10-17T07:04:24.249Z,15.48
2018-10-17T07:06:52.232Z,15.65
2018-10-17T07:09:20.132Z,15.72
2018-10-17T07:11:48.070Z,15.82
2018-10-17T07:14:15.987Z,15.93
2018-10-17T07:16:43.939Z,16.09
2018-10-17T07:19:12.000Z,16.33
2018-10-17T07:21:39.866Z,16.69
2018-10-17T07:24:07.816Z,16.78
2018-10-17T07:26:35.729Z,16.92
2018-10-17T07:29:03.734Z,17.32
2018-10-17T07:31:31.588Z,17.81
2018-10-17T07:33:59.521Z,18.84
2018-10-17T07:36:27.448Z,19.29
2018-10-17T07:38:55.447Z,19.45
2018-10-17T07:41:23.412Z,19.98
2018-10-17T07:43:51.351Z,19.87
2018-10-17T07:46:19.308Z,19.65
2018-10-17T07:48:47.237Z,19.49
2018-10-17T07:51:15.179Z,19.34
2018-10-17T07:53:43.129Z,19.57
2018-10-17T07:56:11.096Z,19.88
2018-10-17T07:58:39.040Z,20.02
2018-10-17T08:01:06.988Z,20.39
2018-10-17T08:03:34.940Z,21.02
2018-10-17T08:06:02.988Z,21.24
2018-10-17T08:08:30.851Z,21.53
2018-10-17T08:10:58.790Z,21.65
2018-10-17T08:13:26.737Z,21.50
2018-10-17T08:15:54.676Z,21.32
2018-10-17T08:18:22.595Z,21.61
2018-10-17T08:20:50.508Z,21.61
2018-10-17T08:23:18.440Z,21.58
2018-10-17T08:25:46.427Z,21.56
2018-10-17T08:28:14.384Z,21.11
2018-10-17T08:30:42.417Z,21.14
2018-10-17T08:33:10.335Z,21.09
2018-10-17T08:35:38.296Z,21.27
2018-10-17T08:38:06.236Z,21.44
2018-10-17T08:40:34.127Z,21.64
2018-10-17T08:43:02.056Z,22.34
2018-10-17T08:45:30.015Z,22.76
2018-10-17T08:47:57.926Z,22.59
2018-10-17T08:50:25.907Z,22.38
2018-10-17T08:52:53.760Z,22.46
2018-10-17T08:55:21.702Z,22.51
2018-10-17T08:57:49.710Z,22.88
2018-10-17T09:00:17.578Z,23.62
2018-10-17T09:02:46.397Z,24.08
2018-10-17T09:05:14.328Z,24.06
2018-10-17T09:07:42.252Z,24.18
2018-10-17T09:10:10.188Z,24.31
2018-10-17T09:12:38.172Z,24.77
2018-10-17T09:15:06.760Z,25.23
2018-10-17T09:17:34.681Z,25.51
2018-10-17T09:20:02.971Z,25.00
2018-10-17T09:22:30.567Z,25.21
2018-10-17T09:24:58.541Z,25.57
2018-10-17T09:27:26.387Z,25.45
2018-10-17T09:29:54.399Z,25.64
2018-10-17T09:32:22.340Z,25.57
2018-10-17T09:34:50.300Z,25.75
2018-10-17T09:37:18.227Z,26.31
2018-10-17T09:39:46.145Z,26.13
2018-10-17T09:42:14.152Z,26.45
2018-10-17T09:44:41.991Z,26.52
2018-10-17T09:47:09.944Z,27.20
2018-10-17T09:49:37.892Z,27.32
2018-10-17T09:52:05.845Z,27.79
2018-10-17T09:54:33.735Z,28.10
2018-10-17T09:57:01.667Z,28.16
2018-10-17T09:59:29.616Z,28.54
2018-10-17T10:01:57.541Z,28.97
2018-10-17T10:04:25.480Z,29.21
2018-10-17T10:06:53.413Z,28.76
2018-10-17T10:09:21.330Z,28.75
2018-10-17T10:11:49.260Z,28.67
2018-10-17T10:14:17.182Z,29.59
2018-10-17T10:16:45.129Z,30.38
2018-10-17T10:19:13.035Z,30.82
2018-10-17T10:21:40.976Z,30.97
2018-10-17T10:24:08.947Z,31.38
2018-10-17T10:26:36.816Z,32.07
2018-10-17T10:29:04.965Z,31.33
2018-10-17T10:31:32.899Z,31.28
2018-10-17T10:34:00.868Z,31.45
2018-10-17T10:36:28.788Z,31.35
2018-10-17T10:38:56.711Z,31.43
2018-10-17T10:41:24.631Z,31.14
2018-10-17T10:43:52.740Z,29.61
2018-10-17T10:46:20.603Z,28.23
2018-10-17T10:48:48.578Z,27.93
2018-10-17T10:51:16.596Z,27.49
2018-10-17T10:53:44.416Z,27.56
2018-10-17T10:56:12.429Z,28.00
2018-10-17T10:58:40.300Z,26.44
2018-10-17T11:01:08.204Z,25.95
2018-10-17T11:03:36.111Z,25.67
2018-10-17T11:06:04.012Z,25.36
2018-10-17T11:08:31.907Z,25.83
2018-10-17T11:10:59.955Z,25.69
2018-10-17T11:13:27.832Z,25.29
2018-10-17T11:15:55.732Z,25.08
2018-10-17T11:18:23.685Z,25.10
2018-10-17T11:20:51.599Z,25.19
2018-10-17T11:23:19.590Z,24.99
2018-10-17T11:25:47.486Z,24.92
2018-10-17T11:28:15.441Z,24.96
2018-10-17T11:30:43.384Z,24.83
2018-10-17T11:33:11.432Z,24.47
2018-10-17T11:35:39.260Z,24.61
2018-10-17T11:38:07.205Z,24.67
2018-10-17T11:40:35.239Z,24.41
2018-10-17T11:43:03.077Z,24.51
2018-10-17T11:45:31.005Z,24.62
2018-10-17T11:47:58.896Z,24.60
2018-10-17T11:50:26.862Z,24.83
2018-10-17T11:52:54.973Z,24.66
2018-10-17T11:55:22.828Z,25.49
2018-10-17T12:00:33.224Z,26.18
2018-10-17T12:03:01.153Z,27.00
2018-10-17T12:05:29.359Z,28.75
2018-10-17T12:07:57.000Z,29.33
2018-10-17T12:10:24.912Z,28.92
2018-10-17T12:12:52.860Z,28.81
2018-10-17T12:15:20.807Z,27.60
2018-10-17T12:17:48.748Z,26.73
2018-10-17T12:20:16.684Z,26.63
2018-10-17T12:22:45.272Z,28.27
2018-10-17T12:25:13.743Z,28.18
2018-10-17T12:27:41.723Z,27.82
2018-10-17T12:30:11.871Z,27.17
2018-10-17T12:32:39.760Z,26.42
2018-10-17T12:35:07.815Z,26.26
2018-10-17T12:37:36.556Z,25.59
2018-10-17T12:40:05.418Z,25.14
2018-10-17T12:42:33.351Z,24.97
2018-10-17T12:45:01.323Z,24.98
2018-10-17T12:47:29.237Z,25.14
2018-10-17T12:49:57.240Z,25.12
2018-10-17T12:52:25.140Z,25.05
2018-10-17T12:54:53.065Z,24.92
2018-10-17T12:57:20.995Z,25.25
2018-10-17T12:59:48.928Z,25.36
2018-10-17T13:02:16.886Z,25.47
2018-10-17T13:04:44.801Z,25.49
2018-10-17T13:07:12.935Z,25.34
2018-10-17T13:09:40.708Z,25.34
2018-10-17T13:12:08.813Z,25.43
2018-10-17T13:14:36.733Z,25.33
2018-10-17T13:17:04.715Z,25.31
2018-10-17T13:19:32.618Z,25.43
2018-10-17T13:22:00.532Z,25.48
2018-10-17T13:24:28.528Z,25.45
2018-10-17T13:26:56.427Z,25.37
2018-10-17T13:29:24.362Z,25.31
2018-10-17T13:31:52.292Z,25.49
2018-10-17T13:34:20.297Z,25.78
2018-10-17T13:36:48.140Z,25.88
2018-10-17T13:39:16.108Z,25.79
2018-10-17T13:41:44.048Z,25.81
2018-10-17T13:44:11.986Z,25.85
2018-10-17T13:46:39.956Z,26.03
2018-10-17T13:49:08.008Z,25.87
2018-10-17T13:51:35.920Z,25.58
2018-10-17T13:54:04.243Z,25.98
2018-10-17T13:56:32.165Z,26.12
2018-10-17T13:59:00.162Z,26.45
2018-10-17T14:01:28.018Z,27.12
2018-10-17T14:03:56.021Z,27.49
2018-10-17T14:06:23.948Z,27.45
2018-10-17T14:08:51.923Z,27.18
2018-10-17T14:11:19.860Z,26.86
2018-10-17T14:13:47.786Z,26.49
2018-10-17T14:16:15.715Z,26.19
2018-10-17T14:18:43.624Z,26.30
2018-10-17T14:21:11.634Z,26.42
2018-10-17T14:23:39.525Z,26.13
2018-10-17T14:26:07.417Z,25.85
2018-10-17T14:28:35.388Z,25.86
2018-10-17T14:31:03.338Z,25.88
2018-10-17T14:33:31.289Z,25.78
2018-10-17T14:35:59.295Z,25.73
2018-10-17T14:38:27.199Z,25.71
2018-10-17T14:40:55.195Z,25.65
2018-10-17T14:43:23.039Z,25.78
2018-10-17T14:45:50.949Z,25.74
2018-10-17T14:48:18.971Z,25.53
2018-10-17T14:50:46.865Z,25.40
2018-10-17T14:53:15.782Z,25.37
2018-10-17T14:55:43.647Z,25.44
2018-10-17T14:58:11.559Z,25.45
2018-10-17T15:00:39.477Z,25.37
2018-10-17T15:03:07.445Z,25.35
2018-10-17T15:05:35.308Z,25.26
2018-10-17T15:08:03.219Z,25.31
2018-10-17T15:10:31.319Z,25.26
2018-10-17T15:12:59.134Z,25.19
2018-10-17T15:15:27.040Z,25.12
2018-10-17T15:17:54.989Z,25.00
2018-10-17T15:20:22.872Z,24.99
2018-10-17T15:22:50.852Z,24.96
2018-10-17T15:25:18.788Z,24.79
2018-10-17T15:27:46.712Z,24.74
2018-10-17T15:30:14.743Z,24.71
2018-10-17T15:32:42.618Z,24.71
2018-10-17T15:35:10.508Z,24.69
2018-10-17T15:37:38.443Z,24.53
2018-10-17T15:40:06.351Z,24.61
2018-10-17T15:42:34.251Z,24.55
2018-10-17T15:45:02.254Z,24.52
2018-10-17T15:47:30.097Z,24.52
2018-10-17T15:49:58.004Z,24.38
2018-10-17T15:52:25.939Z,24.34
2018-10-17T15:54:53.888Z,24.26
2018-10-17T15:57:21.786Z,24.25
2018-10-17T15:59:49.714Z,24.13
2018-10-17T16:02:17.700Z,23.95
2018-10-17T16:04:45.583Z,23.94
2018-10-17T16:07:13.479Z,23.86
2018-10-17T16:09:41.431Z,23.80
2018-10-17T16:12:09.449Z,23.65
2018-10-17T16:14:37.319Z,23.51
2018-10-17T16:17:05.763Z,23.47
2018-10-17T16:19:33.606Z,23.35
2018-10-17T16:22:01.508Z,23.34
2018-10-17T16:24:29.400Z,23.20
2018-10-17T16:26:57.329Z,23.07
2018-10-17T16:29:25.227Z,22.95
2018-10-17T16:31:53.163Z,22.81
2018-10-17T16:34:21.175Z,22.65
2018-10-17T16:36:49.048Z,22.54
2018-10-17T16:39:16.962Z,22.45
2018-10-17T16:41:44.871Z,22.45
2018-10-17T16:44:13.000Z,22.47
2018-10-17T16:46:40.784Z,22.35
2018-10-17T16:49:08.723Z,22.23
2018-10-17T16:51:36.639Z,22.12
2018-10-17T16:54:04.751Z,22.06
2018-10-17T16:56:32.567Z,21.99
2018-10-17T16:59:00.488Z,21.85
2018-10-17T17:01:28.451Z,21.79
2018-10-17T17:03:56.396Z,21.74
2018-10-17T17:06:24.323Z,21.63
2018-10-17T17:08:52.249Z,21.59
2018-10-17T17:11:20.236Z,21.56
2018-10-17T17:13:48.169Z,21.48
2018-10-17T17:16:16.117Z,21.49
2018-10-17T17:18:44.022Z,21.44
2018-10-17T17:21:11.987Z,21.34
2018-10-17T17:23:39.881Z,21.27
2018-10-17T17:26:07.788Z,21.18
2018-10-17T17:28:35.708Z,21.17
2018-10-17T17:31:03.609Z,21.12
2018-10-17T17:33:31.546Z,21.11
2018-10-17T17:35:59.758Z,21.03
2018-10-17T17:38:27.632Z,21.08
2018-10-17T17:40:55.535Z,21.06
2018-10-17T17:43:23.595Z,21.13
2018-10-17T17:45:51.685Z,21.08
2018-10-17T17:48:19.597Z,21.00
2018-10-17T17:50:47.531Z,20.97
2018-10-17T17:53:15.551Z,20.99
2018-10-17T17:55:43.451Z,20.94
2018-10-17T17:58:11.475Z,20.87
2018-10-17T18:00:39.359Z,20.78
2018-10-17T18:03:07.287Z,20.67
2018-10-17T18:05:35.383Z,20.56
2018-10-17T18:08:03.307Z,20.42
2018-10-17T18:10:31.276Z,20.30
2018-10-17T18:12:59.204Z,20.18
2018-10-17T18:15:27.149Z,20.04
2018-10-17T18:17:55.060Z,19.91
2018-10-17T18:20:23.591Z,19.78
2018-10-17T18:22:51.504Z,19.68
2018-10-17T18:25:19.439Z,19.58
2018-10-17T18:27:47.877Z,19.49
2018-10-17T18:30:15.631Z,19.40
2018-10-17T18:32:43.544Z,19.33
2018-10-17T18:35:12.364Z,19.32
2018-10-17T18:37:40.264Z,19.28
2018-10-17T18:40:08.226Z,19.24
2018-10-17T18:42:36.160Z,19.22
2018-10-17T18:45:04.423Z,19.17
2018-10-17T18:47:32.507Z,19.18
2018-10-17T18:50:00.417Z,19.14
2018-10-17T18:52:28.320Z,19.10
2018-10-17T18:54:56.250Z,19.09
2018-10-17T18:57:24.182Z,19.07
2018-10-17T18:59:52.336Z,19.05
2018-10-17T19:02:20.240Z,19.03
2018-10-17T19:04:48.140Z,18.99
2018-10-17T19:07:16.088Z,18.95
2018-10-17T19:09:44.031Z,18.90
2018-10-17T19:12:11.940Z,18.85
2018-10-17T19:14:39.864Z,18.80
2018-10-17T19:17:07.792Z,18.78
2018-10-17T19:19:35.695Z,18.76
2018-10-17T19:22:03.640Z,18.71
2018-10-17T19:24:31.557Z,18.69
2018-10-17T19:26:59.449Z,18.65
2018-10-17T19:29:27.364Z,18.64
2018-10-17T19:31:55.317Z,18.62
2018-10-17T19:34:23.235Z,18.58
2018-10-17T19:36:51.123Z,18.55
2018-10-17T19:39:19.090Z,18.51
2018-10-17T19:41:46.954Z,18.51
2018-10-17T19:44:14.926Z,18.50
2018-10-17T19:46:42.857Z,18.52
2018-10-17T19:49:10.795Z,18.53
2018-10-17T19:51:38.695Z,18.53
2018-10-17T19:54:07.010Z,18.53
2018-10-17T19:56:34.931Z,18.53
2018-10-17T19:59:02.860Z,18.53
2018-10-17T20:01:31.071Z,18.53
2018-10-17T20:03:58.982Z,18.53
2018-10-17T20:06:26.962Z,18.54
2018-10-17T20:08:54.888Z,18.53
2018-10-17T20:11:22.782Z,18.53
2018-10-17T20:13:50.867Z,18.53
2018-10-17T20:16:18.780Z,18.51
2018-10-17T20:18:46.716Z,18.50
2018-10-17T20:21:15.173Z,18.47
2018-10-17T20:23:42.935Z,18.47
2018-10-17T20:26:11.507Z,18.47
2018-10-17T20:28:39.411Z,18.45
2018-10-17T20:31:07.341Z,18.43
2018-10-17T20:33:35.431Z,18.41
2018-10-17T20:36:03.328Z,18.35
2018-10-17T20:38:31.257Z,18.33
2018-10-17T20:40:59.155Z,18.32
2018-10-17T20:43:27.284Z,18.28
2018-10-17T20:45:55.176Z,18.26
2018-10-17T20:48:23.191Z,18.25
2018-10-17T20:50:51.150Z,18.23
2018-10-17T20:53:19.115Z,18.18
2018-10-17T20:55:47.086Z,18.16
2018-10-17T20:58:15.108Z,18.12
2018-10-17T21:00:43.233Z,18.10
2018-10-17T21:03:11.140Z,18.08
2018-10-17T21:05:39.065Z,18.04
2018-10-17T21:08:07.068Z,18.04
2018-10-17T21:10:34.899Z,17.99
2018-10-17T21:13:02.795Z,17.95
2018-10-17T21:15:30.699Z,17.95
2018-10-17T21:17:58.592Z,17.95
2018-10-17T21:20:26.531Z,17.94
2018-10-17T21:22:54.418Z,17.94
2018-10-17T21:25:22.313Z,17.93
2018-10-17T21:27:50.216Z,17.88
2018-10-17T21:30:18.132Z,17.82
2018-10-17T21:32:46.048Z,17.73
2018-10-17T21:35:13.956Z,17.70
2018-10-17T21:37:41.918Z,17.66
2018-10-17T21:40:09.784Z,17.60
2018-10-17T21:42:37.691Z,17.58
2018-10-17T21:45:06.309Z,17.55
2018-10-17T21:47:34.231Z,17.51
2018-10-17T21:50:02.180Z,17.44
2018-10-17T21:52:30.059Z,17.38
2018-10-17T21:54:57.960Z,17.33
2018-10-17T21:57:25.892Z,17.29
2018-10-17T21:59:53.848Z,17.26
2018-10-17T22:02:21.744Z,17.21
2018-10-17T22:04:49.716Z,17.16
2018-10-17T22:07:17.629Z,17.09
2018-10-17T22:09:45.593Z,17.06
2018-10-17T22:12:13.446Z,17.04
2018-10-17T22:14:41.343Z,17.00
2018-10-17T22:17:09.240Z,16.96
2018-10-17T22:19:38.120Z,16.91
2018-10-17T22:22:06.535Z,16.87
2018-10-17T22:24:34.422Z,16.83
2018-10-17T22:27:02.355Z,16.79
2018-10-17T22:29:30.267Z,16.77
2018-10-17T22:31:58.208Z,16.74
2018-10-17T22:34:26.067Z,16.73
2018-10-17T22:36:53.980Z,16.74
2018-10-17T22:39:21.868Z,16.76
2018-10-17T22:41:49.766Z,16.77
2018-10-17T22:44:17.774Z,16.81
2018-10-17T22:46:45.592Z,16.84
2018-10-17T22:49:13.532Z,16.83
2018-10-17T22:51:41.444Z,16.86
2018-10-17T22:54:09.380Z,16.86
2018-10-17T22:56:38.023Z,16.85
2018-10-17T22:59:06.429Z,16.80
2018-10-17T23:01:34.341Z,16.77
2018-10-17T23:04:02.319Z,16.77
2018-10-17T23:06:30.216Z,16.74
2018-10-17T23:08:58.116Z,16.71
2018-10-17T23:11:26.016Z,16.69
2018-10-17T23:13:53.982Z,16.67
2018-10-17T23:16:21.868Z,16.63
2018-10-17T23:18:49.783Z,16.61
2018-10-17T23:21:17.683Z,16.59
2018-10-17T23:23:45.571Z,16.56
2018-10-17T23:26:13.576Z,16.56
2018-10-17T23:28:41.379Z,16.51
2018-10-17T23:31:09.327Z,16.45
2018-10-17T23:33:37.243Z,16.39
2018-10-17T23:36:05.289Z,16.37
2018-10-17T23:38:33.171Z,16.33
2018-10-17T23:41:01.064Z,16.30
2018-10-17T23:43:29.004Z,16.26
2018-10-17T23:45:56.906Z,16.20
2018-10-17T23:48:24.804Z,16.16
2018-10-17T23:50:52.688Z,16.07
2018-10-17T23:53:20.598Z,15.97
2018-10-17T23:55:48.501Z,15.93
2018-10-17T23:58:16.423Z,15.87
